createdAt,value
2023-01-27T00:00:41.284Z,29.2
2023-01-27T00:05:33.245Z,29.1
2023-01-27T00:10:25.083Z,29.1
2023-01-27T00:15:16.335Z,29.1
2023-01-27T00:20:08.287Z,29.1
2023-01-27T00:24:59.925Z,29.1
2023-01-27T00:30:07.422Z,29.1
2023-01-27T00:35:14.710Z,29.1
2023-01-27T00:40:06.813Z,29.1
2023-01-27T00:44:58.129Z,29.1
2023-01-27T00:50:03.995Z,29.1
2023-01-27T00:54:54.684Z,29.1
2023-01-27T01:00:01.420Z,29.1
2023-01-27T01:05:08.447Z,29
2023-01-27T01:10:15.686Z,29
2023-01-27T01:15:23.065Z,29
2023-01-27T01:20:30.027Z,29
2023-01-27T01:25:36.636Z,29
2023-01-27T01:30:59.977Z,28.9
2023-01-27T01:36:22.584Z,28.9
2023-01-27T01:41:47.594Z,28.9
2023-01-27T01:47:10.434Z,28.9
2023-01-27T01:52:32.672Z,28.9
2023-01-27T01:57:56.335Z,28.9
2023-01-27T02:03:19.872Z,29.1
2023-01-27T02:08:42.479Z,31.8
2023-01-27T02:14:04.182Z,35.3
2023-01-27T02:19:27.694Z,37.7
2023-01-27T02:24:34.618Z,39.1
2023-01-27T02:29:57.378Z,40.1
2023-01-27T02:34:37.663Z,40.8
2023-01-27T02:40:01.002Z,41.4
2023-01-27T02:45:23.470Z,42.1
2023-01-27T02:50:46.780Z,42.8
2023-01-27T02:56:08.887Z,43.5
2023-01-27T03:01:30.335Z,44.2
2023-01-27T03:06:53.898Z,44.4
2023-01-27T03:12:16.070Z,44.8
2023-01-27T03:17:23.685Z,45
2023-01-27T03:22:46.606Z,45.2
2023-01-27T03:28:09.335Z,45.4
2023-01-27T03:33:17.105Z,45.7
2023-01-27T03:38:40.334Z,45.9
2023-01-27T03:44:02.241Z,45.9
2023-01-27T03:49:25.314Z,45.9
2023-01-27T03:54:48.043Z,46
2023-01-27T04:00:10.526Z,46
2023-01-27T04:05:33.209Z,45.9
2023-01-27T04:10:55.203Z,45.9
2023-01-27T04:16:19.587Z,45.9
2023-01-27T04:21:25.789Z,45.9
2023-01-27T04:26:51.312Z,45.8
2023-01-27T04:32:25.017Z,45.8
2023-01-27T04:37:36.855Z,45.7
2023-01-27T04:43:00.697Z,45.7
2023-01-27T04:48:08.300Z,45.6
2023-01-27T04:53:14.909Z,45.6
2023-01-27T04:58:22.531Z,45.5
2023-01-27T05:03:29.914Z,45.4
2023-01-27T05:08:38.419Z,45.4
2023-01-27T05:13:45.862Z,45.3
2023-01-27T05:18:53.140Z,45.3
2023-01-27T05:24:01.108Z,45.2
2023-01-27T05:29:23.936Z,45.1
2023-01-27T05:34:47.085Z,45.1
2023-01-27T05:39:54.096Z,45
2023-01-27T05:45:17.481Z,44.9
2023-01-27T05:50:40.347Z,44.9
2023-01-27T05:56:04.970Z,44.8
2023-01-27T06:00:57.915Z,44.7
2023-01-27T06:06:06.753Z,44.6
2023-01-27T06:11:13.980Z,44.6
2023-01-27T06:16:22.400Z,44.4
2023-01-27T06:21:29.221Z,44.3
2023-01-27T06:26:52.031Z,44.3
2023-01-27T06:32:28.121Z,44.1
2023-01-27T06:37:50.767Z,44
2023-01-27T06:43:13.644Z,43.9
2023-01-27T06:48:37.233Z,43.8
2023-01-27T06:53:59.750Z,43.7
2023-01-27T06:59:25.131Z,43.6
2023-01-27T07:04:50.621Z,43.4
2023-01-27T07:10:25.156Z,43.3
2023-01-27T07:15:49.354Z,43.2
2023-01-27T07:21:14.431Z,43.1
2023-01-27T07:26:32.152Z,42.8
2023-01-27T07:31:55.285Z,42.6
2023-01-27T07:37:18.517Z,42.4
2023-01-27T07:42:44.357Z,42.3
2023-01-27T07:47:52.230Z,42.1
2023-01-27T07:52:59.493Z,42
2023-01-27T07:58:22.368Z,41.9
2023-01-27T08:03:45.484Z,41.8
2023-01-27T08:09:27.264Z,41.6
2023-01-27T08:14:50.546Z,41.6
2023-01-27T08:20:13.291Z,41.4
2023-01-27T08:25:36.404Z,41.3
2023-01-27T08:30:59.549Z,41.2
2023-01-27T08:36:22.138Z,41.1
2023-01-27T08:41:47.546Z,41
2023-01-27T08:47:10.361Z,40.9
2023-01-27T08:52:32.882Z,40.8
2023-01-27T08:57:55.781Z,40.7
2023-01-27T09:03:19.543Z,40.4
2023-01-27T09:08:42.171Z,40.2
2023-01-27T09:14:14.807Z,39.9
2023-01-27T09:19:37.390Z,39.9
2023-01-27T09:25:00.343Z,39.8
2023-01-27T09:30:31.982Z,39.6
2023-01-27T09:35:55.693Z,39.5
2023-01-27T09:41:18.375Z,39.4
2023-01-27T09:46:41.231Z,39.3
2023-01-27T09:52:08.692Z,39.2
2023-01-27T09:57:37.466Z,39.1
2023-01-27T10:03:00.347Z,39.1
2023-01-27T10:08:23.605Z,38.9
2023-01-27T10:13:46.813Z,38.9
2023-01-27T10:19:10.013Z,38.8
2023-01-27T10:24:32.662Z,38.8
2023-01-27T10:29:54.229Z,38.7
2023-01-27T10:35:18.012Z,38.6
2023-01-27T10:40:40.722Z,38.5
2023-01-27T10:46:03.796Z,38.4
2023-01-27T10:51:27.085Z,38.4
2023-01-27T10:56:49.101Z,38.3
2023-01-27T11:03:15.542Z,38.3
2023-01-27T11:08:38.509Z,38.1
2023-01-27T11:14:01.165Z,38.1
2023-01-27T11:19:23.609Z,37.9
2023-01-27T11:24:58.865Z,37.8
2023-01-27T11:30:23.426Z,37.7
2023-01-27T11:35:45.960Z,37.6
2023-01-27T11:41:23.515Z,37.6
2023-01-27T11:46:45.827Z,37.5
2023-01-27T11:52:08.262Z,37.3
2023-01-27T11:57:31.122Z,37.1
2023-01-27T12:02:55.214Z,36.9
2023-01-27T12:08:18.217Z,36.8
2023-01-27T12:13:44.442Z,36.8
2023-01-27T12:18:51.678Z,36
2023-01-27T12:24:14.912Z,33.7
2023-01-27T12:29:37.553Z,32.1
2023-01-27T12:35:01.278Z,31.4
2023-01-27T12:40:24.426Z,31.1
2023-01-27T12:45:49.123Z,30.9
2023-01-27T12:51:11.816Z,30.8
2023-01-27T12:56:34.079Z,30.6
2023-01-27T13:02:00.463Z,30.1
2023-01-27T13:07:23.269Z,29.9
2023-01-27T13:12:45.990Z,29.8
2023-01-27T13:18:09.443Z,29.7
2023-01-27T13:23:01.087Z,29.6
2023-01-27T13:28:08.231Z,29.6
2023-01-27T13:33:43.896Z,29.5
2023-01-27T13:38:50.863Z,29.4
2023-01-27T13:44:13.776Z,29.4
2023-01-27T13:49:21.272Z,29.4
2023-01-27T13:54:31.815Z,29.3
2023-01-27T13:59:54.766Z,29.3
2023-01-27T14:05:18.502Z,29.3
2023-01-27T14:10:27.272Z,29.3
2023-01-27T14:16:03.429Z,29.3
2023-01-27T14:21:11.057Z,29.3
2023-01-27T14:26:33.841Z,29.3
2023-01-27T14:31:57.330Z,29.3
2023-01-27T14:37:20.134Z,29.3
2023-01-27T14:42:43.234Z,29.3
2023-01-27T14:48:28.440Z,29.3
2023-01-27T14:53:51.390Z,29.3
2023-01-27T14:59:14.214Z,29.3
2023-01-27T15:04:38.234Z,29.3
2023-01-27T15:10:01.829Z,29.3
2023-01-27T15:15:08.494Z,29.3
2023-01-27T15:20:31.307Z,29.3
2023-01-27T15:25:53.893Z,29.3
2023-01-27T15:31:17.282Z,29.2
2023-01-27T15:36:41.330Z,29.1
2023-01-27T15:42:00.754Z,28.9
2023-01-27T15:47:26.241Z,28.1
2023-01-27T15:52:48.827Z,27.1
2023-01-27T15:58:13.719Z,25.9
2023-01-27T16:03:40.419Z,25.1
2023-01-27T16:09:04.647Z,24.6
2023-01-27T16:14:27.845Z,24.3
2023-01-27T16:19:35.093Z,23.9
2023-01-27T16:24:58.168Z,23.4
2023-01-27T16:30:21.550Z,22.6
2023-01-27T16:35:44.522Z,21.8
2023-01-27T16:41:07.428Z,21.1
2023-01-27T16:46:30.300Z,20.5
2023-01-27T16:52:05.622Z,20.2
2023-01-27T16:57:42.745Z,20
2023-01-27T17:03:19.022Z,19.8
2023-01-27T17:08:53.011Z,19.7
2023-01-27T17:14:46.520Z,19.6
2023-01-27T17:20:20.038Z,19.4
2023-01-27T17:25:43.075Z,19.3
2023-01-27T17:31:09.296Z,18.5
2023-01-27T17:36:44.854Z,17.9
2023-01-27T17:42:14.597Z,17.6
2023-01-27T17:47:42.414Z,17.4
2023-01-27T17:53:12.799Z,17.3
2023-01-27T17:58:44.181Z,17.1
2023-01-27T18:09:06.252Z,16.9
2023-01-27T18:14:34.861Z,16.9
2023-01-27T18:20:02.764Z,16.9
2023-01-27T18:25:33.399Z,16.8
2023-01-27T18:30:46.997Z,16.8
2023-01-27T18:36:17.359Z,16.8
2023-01-27T18:41:34.737Z,16.8
2023-01-27T18:47:14.461Z,16.8
2023-01-27T18:52:55.502Z,16.8
2023-01-27T18:58:36.956Z,16.8
2023-01-27T19:04:14.683Z,16.8
2023-01-27T19:09:49.076Z,16.8
2023-01-27T19:15:17.969Z,16.8
2023-01-27T19:20:44.802Z,16.8
2023-01-27T19:26:02.322Z,16.8
2023-01-27T19:31:01.253Z,16.8
2023-01-27T19:36:30.324Z,16.8
2023-01-27T19:42:01.450Z,16.8
2023-01-27T19:47:29.534Z,16.7
2023-01-27T19:52:57.432Z,16.8
2023-01-27T19:58:23.961Z,16.8
2023-01-27T20:03:52.776Z,16.7
2023-01-27T20:09:22.717Z,16.7
2023-01-27T20:14:51.224Z,16.7
2023-01-27T20:20:20.377Z,17.1
2023-01-27T20:25:45.802Z,17.7
2023-01-27T20:31:12.373Z,18.6
2023-01-27T20:36:22.801Z,19.9
2023-01-27T20:47:07.968Z,22.5
2023-01-27T20:52:31.037Z,23.9
2023-01-27T20:57:53.900Z,25.3
2023-01-27T21:03:16.630Z,26.6
2023-01-27T21:08:40.218Z,27.9
2023-01-27T21:14:03.012Z,28.9
2023-01-27T21:19:26.730Z,29.3
2023-01-27T21:24:34.244Z,29.6
2023-01-27T21:29:44.347Z,29.8
2023-01-27T21:34:52.251Z,29.9
2023-01-27T21:40:15.002Z,29.9
2023-01-27T21:45:37.678Z,29.9
2023-01-27T21:51:00.651Z,30
2023-01-27T21:56:23.926Z,30
2023-01-27T22:01:48.300Z,30
2023-01-27T22:07:11.902Z,30
2023-01-27T22:12:35.237Z,30
2023-01-27T22:17:42.568Z,29.9
2023-01-27T22:22:48.537Z,29.9
2023-01-27T22:28:10.535Z,29.9
2023-01-27T22:33:33.102Z,29.9
2023-01-27T22:38:56.587Z,29.9
2023-01-27T22:44:19.377Z,29.9
2023-01-27T22:49:41.964Z,29.9
2023-01-27T22:55:04.479Z,29.9
2023-01-27T23:00:26.355Z,29.9
2023-01-27T23:05:49.971Z,29.8
2023-01-27T23:11:12.442Z,29.8
2023-01-27T23:16:35.823Z,29.8
2023-01-27T23:21:58.078Z,29.8
2023-01-27T23:27:20.786Z,29.7
2023-01-27T23:32:50.408Z,29.7
2023-01-27T23:38:26.542Z,29.6
2023-01-27T23:43:53.683Z,29.6
2023-01-27T23:49:16.236Z,29.6
2023-01-27T23:54:38.809Z,29.6
